sensor_id;sensor_type;location;lat;lon;timestamp;pressure;altitude;pressure_sealevel;temperature;humidity
17362;BME280;8798;51.938;4.348;2022-09-27T00:01:29;99555.63;;;11.50;90.88
17362;BME280;8798;51.938;4.348;2022-09-27T00:04:01;99571.41;;;11.53;90.89
17362;BME280;8798;51.938;4.348;2022-09-27T00:06:32;99556.69;;;11.49;90.78
17362;BME280;8798;51.938;4.348;2022-09-27T00:09:09;99555.03;;;11.48;90.89
17362;BME280;8798;51.938;4.348;2022-09-27T00:11:43;99541.31;;;11.43;90.30
17362;BME280;8798;51.938;4.348;2022-09-27T00:14:20;99518.69;;;11.37;90.58
17362;BME280;8798;51.938;4.348;2022-09-27T00:16:49;99525.75;;;11.38;90.41
17362;BME280;8798;51.938;4.348;2022-09-27T00:19:21;99540.66;;;11.40;91.17
17362;BME280;8798;51.938;4.348;2022-09-27T00:21:59;99550.22;;;11.43;90.56
17362;BME280;8798;51.938;4.348;2022-09-27T00:24:29;99580.06;;;11.48;90.50
17362;BME280;8798;51.938;4.348;2022-09-27T00:26:59;99589.59;;;11.51;90.38
17362;BME280;8798;51.938;4.348;2022-09-27T00:29:32;99606.16;;;11.54;90.93
17362;BME280;8798;51.938;4.348;2022-09-27T00:32:09;99618.78;;;11.54;90.31
17362;BME280;8798;51.938;4.348;2022-09-27T00:34:39;99631.25;;;11.55;90.85
17362;BME280;8798;51.938;4.348;2022-09-27T00:37:09;99610.06;;;11.52;90.96
17362;BME280;8798;51.938;4.348;2022-09-27T00:39:39;99600.53;;;11.49;90.85
17362;BME280;8798;51.938;4.348;2022-09-27T00:42:09;99591.19;;;11.45;90.67
17362;BME280;8798;51.938;4.348;2022-09-27T00:45:12;99590.16;;;11.46;90.73
17362;BME280;8798;51.938;4.348;2022-09-27T00:47:51;99598.06;;;11.48;91.09
17362;BME280;8798;51.938;4.348;2022-09-27T00:50:28;99624.56;;;11.51;90.65
17362;BME280;8798;51.938;4.348;2022-09-27T00:53:18;99641.13;;;11.54;91.14
17362;BME280;8798;51.938;4.348;2022-09-27T00:55:53;99602.56;;;11.47;90.79
17362;BME280;8798;51.938;4.348;2022-09-27T00:58:30;99564.59;;;11.35;91.07
17362;BME280;8798;51.938;4.348;2022-09-27T01:01:10;99477.72;;;11.13;91.13
17362;BME280;8798;51.938;4.348;2022-09-27T01:03:48;99431.50;;;11.03;90.63
17362;BME280;8798;51.938;4.348;2022-09-27T01:06:21;99462.31;;;11.07;90.95
17362;BME280;8798;51.938;4.348;2022-09-27T01:08:49;99465.22;;;11.06;90.70
17362;BME280;8798;51.938;4.348;2022-09-27T01:11:30;99436.63;;;10.98;90.63
17362;BME280;8798;51.938;4.348;2022-09-27T01:14:36;99395.75;;;10.88;90.92
17362;BME280;8798;51.938;4.348;2022-09-27T01:17:23;99399.47;;;10.87;90.66
17362;BME280;8798;51.938;4.348;2022-09-27T01:20:20;99422.44;;;10.89;90.65
17362;BME280;8798;51.938;4.348;2022-09-27T01:26:10;99411.25;;;10.86;90.69
17362;BME280;8798;51.938;4.348;2022-09-27T01:29:00;99413.31;;;10.84;90.90
17362;BME280;8798;51.938;4.348;2022-09-27T01:31:41;99428.38;;;10.85;90.77
17362;BME280;8798;51.938;4.348;2022-09-27T01:34:22;99423.41;;;10.82;90.90
17362;BME280;8798;51.938;4.348;2022-09-27T01:37:00;99411.34;;;10.77;91.10
17362;BME280;8798;51.938;4.348;2022-09-27T01:39:49;99386.91;;;10.72;90.61
17362;BME280;8798;51.938;4.348;2022-09-27T01:42:20;99385.66;;;10.68;90.94
17362;BME280;8798;51.938;4.348;2022-09-27T01:45:03;99353.53;;;10.60;90.91
17362;BME280;8798;51.938;4.348;2022-09-27T01:47:43;99374.00;;;10.61;91.09
17362;BME280;8798;51.938;4.348;2022-09-27T01:50:22;99401.13;;;10.66;91.24
17362;BME280;8798;51.938;4.348;2022-09-27T01:53:02;99424.53;;;10.72;90.77
17362;BME280;8798;51.938;4.348;2022-09-27T01:55:39;99456.19;;;10.77;91.18
17362;BME280;8798;51.938;4.348;2022-09-27T01:58:11;99488.53;;;10.84;91.01
17362;BME280;8798;51.938;4.348;2022-09-27T02:00:48;99513.78;;;10.89;91.12
17362;BME280;8798;51.938;4.348;2022-09-27T02:03:23;99534.91;;;10.92;91.20
17362;BME280;8798;51.938;4.348;2022-09-27T02:06:11;99568.91;;;11.00;91.17
17362;BME280;8798;51.938;4.348;2022-09-27T02:08:50;99593.34;;;11.05;91.51
17362;BME280;8798;51.938;4.348;2022-09-27T02:11:19;99623.84;;;11.12;90.78
17362;BME280;8798;51.938;4.348;2022-09-27T02:13:52;99643.97;;;11.16;91.00
17362;BME280;8798;51.938;4.348;2022-09-27T02:16:34;99676.13;;;11.25;91.45
17362;BME280;8798;51.938;4.348;2022-09-27T02:19:20;99703.47;;;11.28;91.29
17362;BME280;8798;51.938;4.348;2022-09-27T02:22:06;99673.81;;;11.22;91.33
17362;BME280;8798;51.938;4.348;2022-09-27T02:24:42;99635.44;;;11.13;90.84
17362;BME280;8798;51.938;4.348;2022-09-27T02:27:22;99599.94;;;11.03;91.05
17362;BME280;8798;51.938;4.348;2022-09-27T02:30:11;99566.31;;;10.92;90.95
17362;BME280;8798;51.938;4.348;2022-09-27T02:32:41;99548.88;;;10.88;90.80
17362;BME280;8798;51.938;4.348;2022-09-27T02:35:16;99544.56;;;10.87;90.78
17362;BME280;8798;51.938;4.348;2022-09-27T02:37:49;99545.38;;;10.87;91.37
17362;BME280;8798;51.938;4.348;2022-09-27T02:40:19;99555.28;;;10.87;91.01
17362;BME280;8798;51.938;4.348;2022-09-27T02:42:49;99560.50;;;10.88;91.44
17362;BME280;8798;51.938;4.348;2022-09-27T02:45:19;99579.75;;;10.92;91.21
17362;BME280;8798;51.938;4.348;2022-09-27T02:48:13;99621.63;;;11.01;91.13
17362;BME280;8798;51.938;4.348;2022-09-27T02:51:11;99639.25;;;11.04;91.01
17362;BME280;8798;51.938;4.348;2022-09-27T02:54:05;99676.75;;;11.12;91.30
17362;BME280;8798;51.938;4.348;2022-09-27T02:56:44;99709.94;;;11.19;91.18
17362;BME280;8798;51.938;4.348;2022-09-27T02:59:23;99749.34;;;11.27;91.39
17362;BME280;8798;51.938;4.348;2022-09-27T03:02:10;99778.66;;;11.36;90.99
17362;BME280;8798;51.938;4.348;2022-09-27T03:04:51;99812.03;;;11.42;90.92
17362;BME280;8798;51.938;4.348;2022-09-27T03:07:23;99818.91;;;11.45;91.01
17362;BME280;8798;51.938;4.348;2022-09-27T03:10:00;99829.50;;;11.46;91.53
17362;BME280;8798;51.938;4.348;2022-09-27T03:12:27;99821.41;;;11.46;91.57
17362;BME280;8798;51.938;4.348;2022-09-27T03:15:00;99823.28;;;11.46;91.27
17362;BME280;8798;51.938;4.348;2022-09-27T03:17:29;99822.25;;;11.47;91.68
17362;BME280;8798;51.938;4.348;2022-09-27T03:19:59;99823.28;;;11.46;91.30
17362;BME280;8798;51.938;4.348;2022-09-27T03:22:32;99822.25;;;11.47;91.10
17362;BME280;8798;51.938;4.348;2022-09-27T03:25:03;99843.41;;;11.50;91.91
17362;BME280;8798;51.938;4.348;2022-09-27T03:27:40;99868.75;;;11.55;91.04
17362;BME280;8798;51.938;4.348;2022-09-27T03:30:11;99875.59;;;11.58;91.10
17362;BME280;8798;51.938;4.348;2022-09-27T03:32:42;99838.88;;;11.50;91.70
17362;BME280;8798;51.938;4.348;2022-09-27T03:35:19;99806.50;;;11.44;91.35
17362;BME280;8798;51.938;4.348;2022-09-27T03:37:49;99777.84;;;11.36;91.12
17362;BME280;8798;51.938;4.348;2022-09-27T03:40:19;99744.81;;;11.27;91.72
17362;BME280;8798;51.938;4.348;2022-09-27T03:42:49;99726.38;;;11.24;91.68
17362;BME280;8798;51.938;4.348;2022-09-27T03:45:20;99703.91;;;11.17;91.67
17362;BME280;8798;51.938;4.348;2022-09-27T03:47:49;99661.84;;;11.09;91.12
17362;BME280;8798;51.938;4.348;2022-09-27T03:50:19;99655.00;;;11.07;91.18
17362;BME280;8798;51.938;4.348;2022-09-27T03:52:50;99676.09;;;11.10;91.57
17362;BME280;8798;51.938;4.348;2022-09-27T03:55:19;99663.06;;;11.07;91.10
17362;BME280;8798;51.938;4.348;2022-09-27T03:57:51;99593.72;;;10.87;91.59
17362;BME280;8798;51.938;4.348;2022-09-27T04:00:20;99575.47;;;10.83;91.56
17362;BME280;8798;51.938;4.348;2022-09-27T04:02:49;99578.38;;;10.81;91.66
17362;BME280;8798;51.938;4.348;2022-09-27T04:05:20;99589.56;;;10.85;91.23
17362;BME280;8798;51.938;4.348;2022-09-27T04:07:51;99593.06;;;10.85;91.41
17362;BME280;8798;51.938;4.348;2022-09-27T04:10:19;99583.53;;;10.83;91.63
17362;BME280;8798;51.938;4.348;2022-09-27T04:12:49;99613.38;;;10.88;91.19
17362;BME280;8798;51.938;4.348;2022-09-27T04:15:20;99630.78;;;10.92;91.47
17362;BME280;8798;51.938;4.348;2022-09-27T04:17:49;99651.91;;;10.95;91.38
17362;BME280;8798;51.938;4.348;2022-09-27T04:20:17;99658.78;;;10.97;91.46
17362;BME280;8798;51.938;4.348;2022-09-27T04:22:51;99657.28;;;10.95;91.41
17362;BME280;8798;51.938;4.348;2022-09-27T04:25:19;99636.34;;;10.90;91.41
17362;BME280;8798;51.938;4.348;2022-09-27T04:27:52;99606.06;;;10.82;91.59
17362;BME280;8798;51.938;4.348;2022-09-27T04:30:30;99618.28;;;10.84;91.52
17362;BME280;8798;51.938;4.348;2022-09-27T04:32:59;99648.94;;;10.90;91.58
17362;BME280;8798;51.938;4.348;2022-09-27T04:35:30;99646.25;;;10.90;91.58
17362;BME280;8798;51.938;4.348;2022-09-27T04:38:19;99666.38;;;10.94;91.42
17362;BME280;8798;51.938;4.348;2022-09-27T04:40:49;99642.75;;;10.89;91.57
17362;BME280;8798;51.938;4.348;2022-09-27T04:43:18;99606.59;;;10.77;91.44
17362;BME280;8798;51.938;4.348;2022-09-27T04:45:50;99572.63;;;10.69;91.57
17362;BME280;8798;51.938;4.348;2022-09-27T04:48:19;99554.75;;;10.62;91.51
17362;BME280;8798;51.938;4.348;2022-09-27T04:50:57;99500.88;;;10.48;91.49
17362;BME280;8798;51.938;4.348;2022-09-27T04:53:31;99500.88;;;10.48;91.65
17362;BME280;8798;51.938;4.348;2022-09-27T04:56:02;99512.22;;;10.50;91.76
17362;BME280;8798;51.938;4.348;2022-09-27T04:58:40;99525.47;;;10.52;91.21
17362;BME280;8798;51.938;4.348;2022-09-27T05:01:09;99576.22;;;10.62;91.21
17362;BME280;8798;51.938;4.348;2022-09-27T05:03:39;99619.75;;;10.72;91.60
17362;BME280;8798;51.938;4.348;2022-09-27T05:06:09;99668.88;;;10.81;91.30
17362;BME280;8798;51.938;4.348;2022-09-27T05:08:42;99667.84;;;10.82;91.08
17362;BME280;8798;51.938;4.348;2022-09-27T05:11:31;99690.66;;;10.86;91.78
17362;BME280;8798;51.938;4.348;2022-09-27T05:14:00;99695.66;;;10.89;91.40
17362;BME280;8798;51.938;4.348;2022-09-27T05:16:33;99714.75;;;10.94;91.37
17362;BME280;8798;51.938;4.348;2022-09-27T05:19:10;99742.94;;;10.98;91.44
17362;BME280;8798;51.938;4.348;2022-09-27T05:21:40;99759.34;;;11.03;91.69
17362;BME280;8798;51.938;4.348;2022-09-27T05:24:11;99789.19;;;11.08;91.35
17362;BME280;8798;51.938;4.348;2022-09-27T05:26:39;99796.22;;;11.09;91.41
17362;BME280;8798;51.938;4.348;2022-09-27T05:29:09;99797.91;;;11.10;91.74
17362;BME280;8798;51.938;4.348;2022-09-27T05:31:40;99805.78;;;11.12;91.79
17362;BME280;8798;51.938;4.348;2022-09-27T05:34:10;99802.25;;;11.11;91.28
17362;BME280;8798;51.938;4.348;2022-09-27T05:36:40;99817.00;;;11.15;91.09
17362;BME280;8798;51.938;4.348;2022-09-27T05:39:12;99840.00;;;11.18;91.71
17362;BME280;8798;51.938;4.348;2022-09-27T05:41:50;99852.91;;;11.23;91.44
17362;BME280;8798;51.938;4.348;2022-09-27T05:44:30;99869.50;;;11.26;91.38
17362;BME280;8798;51.938;4.348;2022-09-27T05:47:01;99873.00;;;11.27;91.67
17362;BME280;8798;51.938;4.348;2022-09-27T05:49:29;99886.94;;;11.30;91.65
17362;BME280;8798;51.938;4.348;2022-09-27T05:51:59;99865.78;;;11.27;91.96
17362;BME280;8798;51.938;4.348;2022-09-27T05:54:30;99867.63;;;11.27;91.50
17362;BME280;8798;51.938;4.348;2022-09-27T05:57:00;99888.59;;;11.31;91.78
17362;BME280;8798;51.938;4.348;2022-09-27T05:59:29;99890.09;;;11.34;91.73
17362;BME280;8798;51.938;4.348;2022-09-27T06:01:59;99913.94;;;11.37;91.54
17362;BME280;8798;51.938;4.348;2022-09-27T06:04:34;99922.28;;;11.42;91.68
17362;BME280;8798;51.938;4.348;2022-09-27T06:07:10;99937.22;;;11.45;91.59
17362;BME280;8798;51.938;4.348;2022-09-27T06:09:40;99944.09;;;11.47;91.45
17362;BME280;8798;51.938;4.348;2022-09-27T06:12:09;99950.34;;;11.48;91.85
17362;BME280;8798;51.938;4.348;2022-09-27T06:14:39;99975.66;;;11.53;92.02
17362;BME280;8798;51.938;4.348;2022-09-27T06:17:10;99992.94;;;11.59;92.02
17362;BME280;8798;51.938;4.348;2022-09-27T06:19:44;100000.00;;;11.60;91.69
17362;BME280;8798;51.938;4.348;2022-09-27T06:22:30;100007.72;;;11.63;92.13
17362;BME280;8798;51.938;4.348;2022-09-27T06:25:03;100023.31;;;11.68;91.99
17362;BME280;8798;51.938;4.348;2022-09-27T06:27:40;100033.72;;;11.71;91.88
17362;BME280;8798;51.938;4.348;2022-09-27T06:30:11;100046.63;;;11.75;91.78
17362;BME280;8798;51.938;4.348;2022-09-27T06:32:47;100057.03;;;11.78;91.94
17362;BME280;8798;51.938;4.348;2022-09-27T06:35:20;100059.53;;;11.80;92.11
17362;BME280;8798;51.938;4.348;2022-09-27T06:37:53;100069.94;;;11.83;91.93
17362;BME280;8798;51.938;4.348;2022-09-27T06:40:32;100089.09;;;11.88;92.13
17362;BME280;8798;51.938;4.348;2022-09-27T06:43:11;100091.63;;;11.90;91.51
17362;BME280;8798;51.938;4.348;2022-09-27T06:45:40;100088.09;;;11.89;92.01
17362;BME280;8798;51.938;4.348;2022-09-27T06:48:11;100087.25;;;11.89;92.00
17362;BME280;8798;51.938;4.348;2022-09-27T06:50:41;100066.88;;;11.86;91.91
17362;BME280;8798;51.938;4.348;2022-09-27T06:53:11;100042.38;;;11.81;91.82
17362;BME280;8798;51.938;4.348;2022-09-27T06:55:51;100023.91;;;11.78;91.76
17362;BME280;8798;51.938;4.348;2022-09-27T06:58:20;99992.31;;;11.72;91.52
17362;BME280;8798;51.938;4.348;2022-09-27T07:01:07;99976.53;;;11.69;92.16
17362;BME280;8798;51.938;4.348;2022-09-27T07:03:39;99989.00;;;11.70;91.90
17362;BME280;8798;51.938;4.348;2022-09-27T07:06:15;99999.19;;;11.74;92.55
17362;BME280;8798;51.938;4.348;2022-09-27T07:08:50;100015.84;;;11.78;92.13
17362;BME280;8798;51.938;4.348;2022-09-27T07:11:21;100035.63;;;11.85;92.05
17362;BME280;8798;51.938;4.348;2022-09-27T07:14:02;100033.94;;;11.84;92.04
17362;BME280;8798;51.938;4.348;2022-09-27T07:16:40;99996.34;;;11.76;91.99
17362;BME280;8798;51.938;4.348;2022-09-27T07:19:09;99965.63;;;11.70;91.74
17362;BME280;8798;51.938;4.348;2022-09-27T07:21:40;99928.38;;;11.59;91.98
17362;BME280;8798;51.938;4.348;2022-09-27T07:24:10;99903.03;;;11.53;91.95
17362;BME280;8798;51.938;4.348;2022-09-27T07:26:42;99887.28;;;11.50;92.00
17362;BME280;8798;51.938;4.348;2022-09-27T07:29:20;99885.41;;;11.51;91.49
17362;BME280;8798;51.938;4.348;2022-09-27T07:31:51;99884.59;;;11.50;91.71
17362;BME280;8798;51.938;4.348;2022-09-27T07:34:20;99880.22;;;11.49;91.75
17362;BME280;8798;51.938;4.348;2022-09-27T07:36:52;99888.94;;;11.51;91.55
17362;BME280;8798;51.938;4.348;2022-09-27T07:39:30;99891.47;;;11.53;92.17
17362;BME280;8798;51.938;4.348;2022-09-27T07:42:12;99925.69;;;11.59;91.59
17362;BME280;8798;51.938;4.348;2022-09-27T07:44:41;99941.13;;;11.65;91.70
17362;BME280;8798;51.938;4.348;2022-09-27T07:47:11;99974.34;;;11.72;92.06
17362;BME280;8798;51.938;4.348;2022-09-27T07:49:40;100006.56;;;11.80;91.72
17362;BME280;8798;51.938;4.348;2022-09-27T07:52:11;100027.56;;;11.85;92.04
17362;BME280;8798;51.938;4.348;2022-09-27T07:54:42;99993.47;;;11.77;91.82
17362;BME280;8798;51.938;4.348;2022-09-27T07:57:21;99877.53;;;11.49;92.10
17362;BME280;8798;51.938;4.348;2022-09-27T07:59:50;99821.69;;;11.36;92.16
17362;BME280;8798;51.938;4.348;2022-09-27T08:02:20;99824.38;;;11.36;91.60
17362;BME280;8798;51.938;4.348;2022-09-27T08:04:48;99827.88;;;11.37;92.07
17362;BME280;8798;51.938;4.348;2022-09-27T08:07:20;99842.47;;;11.43;91.58
17362;BME280;8798;51.938;4.348;2022-09-27T08:09:50;99857.59;;;11.44;91.59
17362;BME280;8798;51.938;4.348;2022-09-27T08:12:23;99862.78;;;11.45;91.96
17362;BME280;8798;51.938;4.348;2022-09-27T08:15:01;99873.19;;;11.48;91.84
17362;BME280;8798;51.938;4.348;2022-09-27T08:17:30;99889.97;;;11.50;91.44
17362;BME280;8798;51.938;4.348;2022-09-27T08:20:00;99883.09;;;11.48;91.76
17362;BME280;8798;51.938;4.348;2022-09-27T08:22:41;99889.31;;;11.48;91.63
17362;BME280;8798;51.938;4.348;2022-09-27T08:25:10;99827.06;;;11.36;91.95
17362;BME280;8798;51.938;4.348;2022-09-27T08:27:41;99781.81;;;11.25;92.15
17362;BME280;8798;51.938;4.348;2022-09-27T08:30:10;99794.22;;;11.26;92.25
17362;BME280;8798;51.938;4.348;2022-09-27T08:32:41;99801.91;;;11.29;91.95
17362;BME280;8798;51.938;4.348;2022-09-27T08:35:10;99822.06;;;11.33;91.60
17362;BME280;8798;51.938;4.348;2022-09-27T08:37:42;99835.28;;;11.35;92.04
17362;BME280;8798;51.938;4.348;2022-09-27T08:40:13;99836.31;;;11.34;91.93
17362;BME280;8798;51.938;4.348;2022-09-27T08:43:00;99837.97;;;11.35;91.79
17362;BME280;8798;51.938;4.348;2022-09-27T08:48:53;99827.59;;;11.32;92.02
17362;BME280;8798;51.938;4.348;2022-09-27T08:51:30;99809.16;;;11.29;91.74
17362;BME280;8798;51.938;4.348;2022-09-27T08:54:04;99837.53;;;11.31;92.02
17362;BME280;8798;51.938;4.348;2022-09-27T08:56:40;99879.25;;;11.42;92.30
17362;BME280;8798;51.938;4.348;2022-09-27T08:59:13;99924.56;;;11.53;91.89
17362;BME280;8798;51.938;4.348;2022-09-27T09:01:49;99977.75;;;11.66;91.67
17362;BME280;8798;51.938;4.348;2022-09-27T09:04:23;100033.63;;;11.79;92.24
17362;BME280;8798;51.938;4.348;2022-09-27T09:07:06;100080.00;;;11.89;92.13
17362;BME280;8798;51.938;4.348;2022-09-27T09:09:43;100122.84;;;11.99;91.70
17362;BME280;8798;51.938;4.348;2022-09-27T09:12:34;100139.94;;;12.06;91.62
17362;BME280;8798;51.938;4.348;2022-09-27T09:15:31;100185.13;;;12.19;92.19
17362;BME280;8798;51.938;4.348;2022-09-27T09:18:33;100225.28;;;12.29;92.10
17362;BME280;8798;51.938;4.348;2022-09-27T09:21:22;100233.19;;;12.30;92.18
17362;BME280;8798;51.938;4.348;2022-09-27T09:24:12;100207.63;;;12.26;91.99
17362;BME280;8798;51.938;4.348;2022-09-27T09:26:53;100192.00;;;12.21;91.95
17362;BME280;8798;51.938;4.348;2022-09-27T09:29:49;100135.88;;;12.10;92.02
17362;BME280;8798;51.938;4.348;2022-09-27T09:32:31;100038.16;;;11.87;91.84
17362;BME280;8798;51.938;4.348;2022-09-27T09:35:12;99941.13;;;11.65;92.10
17362;BME280;8798;51.938;4.348;2022-09-27T09:37:51;99848.84;;;11.41;91.74
17362;BME280;8798;51.938;4.348;2022-09-27T09:40:31;99745.72;;;11.19;91.91
17362;BME280;8798;51.938;4.348;2022-09-27T09:43:12;99697.97;;;11.07;92.27
17362;BME280;8798;51.938;4.348;2022-09-27T09:45:54;99667.69;;;10.98;92.67
17362;BME280;8798;51.938;4.348;2022-09-27T09:48:40;99668.69;;;10.97;91.69
17362;BME280;8798;51.938;4.348;2022-09-27T09:51:43;99659.34;;;10.93;91.70
17362;BME280;8798;51.938;4.348;2022-09-27T09:54:22;99656.66;;;10.93;91.77
17362;BME280;8798;51.938;4.348;2022-09-27T09:57:02;99665.56;;;10.93;92.20
17362;BME280;8798;51.938;4.348;2022-09-27T09:59:35;99677.94;;;10.94;92.00
17362;BME280;8798;51.938;4.348;2022-09-27T10:02:24;99687.50;;;10.97;91.59
17362;BME280;8798;51.938;4.348;2022-09-27T10:05:03;99701.59;;;10.99;91.82
17362;BME280;8798;51.938;4.348;2022-09-27T10:07:40;99734.94;;;11.05;91.78
17362;BME280;8798;51.938;4.348;2022-09-27T10:10:14;99715.69;;;11.01;91.77
17362;BME280;8798;51.938;4.348;2022-09-27T10:12:50;99735.16;;;11.03;91.74
17362;BME280;8798;51.938;4.348;2022-09-27T10:15:22;99749.03;;;11.07;91.74
17362;BME280;8798;51.938;4.348;2022-09-27T10:18:02;99769.19;;;11.11;91.63
17362;BME280;8798;51.938;4.348;2022-09-27T10:20:45;99794.47;;;11.16;92.11
17362;BME280;8798;51.938;4.348;2022-09-27T10:23:22;99815.63;;;11.19;91.95
17362;BME280;8798;51.938;4.348;2022-09-27T10:26:02;99814.78;;;11.19;92.29
17362;BME280;8798;51.938;4.348;2022-09-27T10:28:42;99829.72;;;11.22;92.12
17362;BME280;8798;51.938;4.348;2022-09-27T10:31:22;99867.28;;;11.30;92.08
17362;BME280;8798;51.938;4.348;2022-09-27T10:33:53;99891.75;;;11.35;91.78
17362;BME280;8798;51.938;4.348;2022-09-27T10:36:42;99895.09;;;11.37;92.03
17362;BME280;8798;51.938;4.348;2022-09-27T10:39:20;99917.28;;;11.39;91.86
17362;BME280;8798;51.938;4.348;2022-09-27T10:41:53;99914.41;;;11.40;91.70
17362;BME280;8798;51.938;4.348;2022-09-27T10:44:35;99910.03;;;11.39;91.82
17362;BME280;8798;51.938;4.348;2022-09-27T10:47:13;99919.81;;;11.40;92.50
17362;BME280;8798;51.938;4.348;2022-09-27T10:50:02;99939.75;;;11.46;92.07
17362;BME280;8798;51.938;4.348;2022-09-27T10:53:02;99981.72;;;11.55;91.84
17362;BME280;8798;51.938;4.348;2022-09-27T10:55:41;100027.00;;;11.67;92.35
17362;BME280;8798;51.938;4.348;2022-09-27T10:58:33;100049.69;;;11.72;91.73
17362;BME280;8798;51.938;4.348;2022-09-27T11:01:13;100099.38;;;11.84;92.00
17362;BME280;8798;51.938;4.348;2022-09-27T11:03:54;100145.56;;;11.96;92.00
17362;BME280;8798;51.938;4.348;2022-09-27T11:06:30;100154.97;;;12.00;92.46
17362;BME280;8798;51.938;4.348;2022-09-27T11:09:22;100222.34;;;12.15;91.71
17362;BME280;8798;51.938;4.348;2022-09-27T11:12:10;100271.72;;;12.31;91.93
17362;BME280;8798;51.938;4.348;2022-09-27T11:14:40;100310.25;;;12.39;92.03
17362;BME280;8798;51.938;4.348;2022-09-27T11:17:18;100319.47;;;12.45;92.12
17362;BME280;8798;51.938;4.348;2022-09-27T11:20:13;100368.41;;;12.57;92.06
17362;BME280;8798;51.938;4.348;2022-09-27T11:23:19;100398.81;;;12.65;91.60
17362;BME280;8798;51.938;4.348;2022-09-27T11:26:12;100409.06;;;12.70;92.00
17362;BME280;8798;51.938;4.348;2022-09-27T11:28:54;100393.28;;;12.67;92.18
17362;BME280;8798;51.938;4.348;2022-09-27T11:31:42;100364.16;;;12.62;92.40
17362;BME280;8798;51.938;4.348;2022-09-27T11:34:47;100316.53;;;12.55;91.89
17362;BME280;8798;51.938;4.348;2022-09-27T11:37:27;100235.81;;;12.38;92.31
17362;BME280;8798;51.938;4.348;2022-09-27T11:40:09;100187.78;;;12.27;91.96
17362;BME280;8798;51.938;4.348;2022-09-27T11:43:14;100170.28;;;12.23;92.25
17362;BME280;8798;51.938;4.348;2022-09-27T11:46:04;100124.75;;;12.13;92.20
17362;BME280;8798;51.938;4.348;2022-09-27T11:49:06;100113.31;;;12.11;92.08
17362;BME280;8798;51.938;4.348;2022-09-27T11:51:55;100109.81;;;12.11;91.58
17362;BME280;8798;51.938;4.348;2022-09-27T11:54:44;100114.00;;;12.13;92.08
17362;BME280;8798;51.938;4.348;2022-09-27T11:57:22;100116.50;;;12.15;91.71
17362;BME280;8798;51.938;4.348;2022-09-27T12:00:16;100123.56;;;12.16;91.64
17362;BME280;8798;51.938;4.348;2022-09-27T12:03:24;100140.84;;;12.21;91.55
17362;BME280;8798;51.938;4.348;2022-09-27T12:06:09;100152.94;;;12.25;91.54
17362;BME280;8798;51.938;4.348;2022-09-27T12:08:52;100170.22;;;12.31;92.12
17362;BME280;8798;51.938;4.348;2022-09-27T12:11:34;100212.91;;;12.42;91.97
17362;BME280;8798;51.938;4.348;2022-09-27T12:14:18;100278.28;;;12.59;91.95
17362;BME280;8798;51.938;4.348;2022-09-27T12:17:01;100326.19;;;12.72;92.08
17362;BME280;8798;51.938;4.348;2022-09-27T12:19:34;100359.50;;;12.79;91.91
17362;BME280;8798;51.938;4.348;2022-09-27T12:22:17;100386.03;;;12.90;91.55
17362;BME280;8798;51.938;4.348;2022-09-27T12:25:25;100423.56;;;13.00;91.91
17362;BME280;8798;51.938;4.348;2022-09-27T12:28:12;100439.03;;;13.06;92.19
17362;BME280;8798;51.938;4.348;2022-09-27T12:31:02;100435.31;;;13.07;91.61
17362;BME280;8798;51.938;4.348;2022-09-27T12:34:13;100410.75;;;13.02;92.03
17362;BME280;8798;51.938;4.348;2022-09-27T12:36:55;100357.03;;;12.93;91.44
17362;BME280;8798;51.938;4.348;2022-09-27T12:39:52;100334.19;;;12.88;92.08
17362;BME280;8798;51.938;4.348;2022-09-27T12:42:25;100335.69;;;12.91;92.06
17362;BME280;8798;51.938;4.348;2022-09-27T12:45:11;100352.97;;;12.97;91.99
17362;BME280;8798;51.938;4.348;2022-09-27T12:47:54;100344.91;;;12.97;91.59
17362;BME280;8798;51.938;4.348;2022-09-27T12:50:35;100379.72;;;13.06;91.82
17362;BME280;8798;51.938;4.348;2022-09-27T12:53:14;100384.56;;;13.11;91.48
17362;BME280;8798;51.938;4.348;2022-09-27T12:56:15;100376.66;;;13.09;91.31
17362;BME280;8798;51.938;4.348;2022-09-27T12:59:07;100366.69;;;13.10;91.51
17362;BME280;8798;51.938;4.348;2022-09-27T13:06:05;100374.25;;;13.15;91.40
17362;BME280;8798;51.938;4.348;2022-09-27T13:08:56;100368.69;;;13.16;91.42
17362;BME280;8798;51.938;4.348;2022-09-27T13:11:42;100356.19;;;13.15;91.16
17362;BME280;8798;51.938;4.348;2022-09-27T13:14:24;100350.81;;;13.15;91.05
17362;BME280;8798;51.938;4.348;2022-09-27T13:17:01;100320.84;;;13.10;91.10
17362;BME280;8798;51.938;4.348;2022-09-27T13:19:42;100300.69;;;13.06;90.95
17362;BME280;8798;51.938;4.348;2022-09-27T13:22:41;100262.81;;;12.99;91.53
17362;BME280;8798;51.938;4.348;2022-09-27T13:28:31;100235.19;;;12.97;91.04
17362;BME280;8798;51.938;4.348;2022-09-27T13:31:03;100225.59;;;12.95;91.10
17362;BME280;8798;51.938;4.348;2022-09-27T13:33:44;100256.03;;;13.03;90.73
17362;BME280;8798;51.938;4.348;2022-09-27T13:36:31;100246.09;;;13.04;90.64
17362;BME280;8798;51.938;4.348;2022-09-27T13:39:15;100259.19;;;13.07;90.93
17362;BME280;8798;51.938;4.348;2022-09-27T13:42:02;100263.38;;;13.09;90.58
17362;BME280;8798;51.938;4.348;2022-09-27T13:44:58;100267.56;;;13.12;90.74
17362;BME280;8798;51.938;4.348;2022-09-27T13:47:38;100291.97;;;13.19;91.14
17362;BME280;8798;51.938;4.348;2022-09-27T13:50:21;100298.66;;;13.23;90.69
17362;BME280;8798;51.938;4.348;2022-09-27T13:53:03;100302.88;;;13.25;90.55
17362;BME280;8798;51.938;4.348;2022-09-27T13:55:45;100310.63;;;13.28;91.33
17362;BME280;8798;51.938;4.348;2022-09-27T14:01:26;100314.59;;;13.32;90.68
17362;BME280;8798;51.938;4.348;2022-09-27T14:04:02;100298.63;;;13.31;90.86
17362;BME280;8798;51.938;4.348;2022-09-27T14:06:34;100271.34;;;13.26;90.54
17362;BME280;8798;51.938;4.348;2022-09-27T14:09:17;100247.59;;;13.21;91.02
17362;BME280;8798;51.938;4.348;2022-09-27T14:11:55;100202.69;;;13.13;91.02
17362;BME280;8798;51.938;4.348;2022-09-27T14:14:31;100192.91;;;13.12;90.94
17362;BME280;8798;51.938;4.348;2022-09-27T14:17:05;100189.19;;;13.13;91.01
17362;BME280;8798;51.938;4.348;2022-09-27T14:19:41;100189.84;;;13.16;90.63
17362;BME280;8798;51.938;4.348;2022-09-27T14:22:15;100175.72;;;13.13;91.01